Time;durP1;ratioP1;P1;durP2;ratioP2;P2;SDS_P1;SDS_P2;PMS_P1;PMS_P2;Temp;Humidity;BMP_temperature;BMP_pressure;BME280_temperature;BME280_humidity;BME280_pressure;Samples;Min_cycle;Max_cycle;Signal;HPM_P1;HPM_P2
2022/10/11 00:00:51;;;;;;;19.70;6.35;;;;;;;-142.37;100.00;59669.53;5113741;28;20494;-71
2022/10/11 00:03:17;;;;;;;10.00;6.03;;;;;;;-142.37;100.00;59669.53;5113722;28;20027;-72
2022/10/11 00:05:43;;;;;;;13.50;6.05;;;;;;;-142.37;100.00;59669.53;5113783;28;20038;-71
2022/10/11 00:08:10;;;;;;;11.80;5.35;;;;;;;-142.37;100.00;59669.53;5095598;28;20043;-71
2022/10/11 00:10:35;;;;;;;12.65;5.95;;;;;;;-142.37;100.00;59669.53;5113755;28;20051;-72
2022/10/11 00:13:02;;;;;;;13.05;5.45;;;;;;;-142.37;100.00;59669.53;5113460;28;20423;-72
2022/10/11 00:15:28;;;;;;;11.23;5.90;;;;;;;-142.37;100.00;59669.53;5113592;28;20031;-71
2022/10/11 00:17:54;;;;;;;9.68;5.00;;;;;;;-142.37;100.00;59669.53;5113792;28;20530;-71
2022/10/11 00:20:19;;;;;;;12.48;6.03;;;;;;;-142.37;100.00;59669.53;5095193;28;20499;-72
2022/10/11 00:22:45;;;;;;;18.33;5.95;;;;;;;-142.37;100.00;59669.53;5095165;28;20020;-72
2022/10/11 00:25:12;;;;;;;9.70;5.55;;;;;;;-142.37;100.00;59669.53;5094649;28;20492;-71
2022/10/11 00:27:38;;;;;;;9.40;4.95;;;;;;;-142.37;100.00;59669.53;5112169;28;20445;-72
2022/10/11 00:30:07;;;;;;;11.75;4.88;;;;;;;-142.37;100.00;59669.53;5112975;28;20024;-72
2022/10/11 00:32:35;;;;;;;11.80;5.10;;;;;;;-142.37;100.00;59669.53;5094982;28;20098;-73
2022/10/11 00:35:05;;;;;;;10.30;5.60;;;;;;;-142.37;100.00;59669.53;5113016;28;20105;-72
2022/10/11 00:37:34;;;;;;;11.23;4.72;;;;;;;-142.37;100.00;59669.53;5094779;28;20027;-72
2022/10/11 00:40:01;;;;;;;8.95;5.15;;;;;;;-142.37;100.00;59669.53;5112899;28;20114;-71
2022/10/11 00:42:27;;;;;;;10.05;4.50;;;;;;;-142.37;100.00;59669.53;5094353;28;20039;-71
2022/10/11 00:45:30;;;;;;;15.50;4.85;;;;;;;-142.37;100.00;59669.53;5094735;28;20027;-71
2022/10/11 00:48:01;;;;;;;9.27;4.47;;;;;;;-142.37;100.00;59669.53;5112752;28;20042;-71
2022/10/11 00:50:29;;;;;;;11.45;5.68;;;;;;;-142.37;100.00;59669.53;5113090;28;20046;-70
2022/10/11 00:53:00;;;;;;;8.13;5.15;;;;;;;-142.37;100.00;59669.53;5094637;28;20384;-73
2022/10/11 00:55:31;;;;;;;8.75;4.72;;;;;;;-142.37;100.00;59669.53;5112845;28;20034;-73
2022/10/11 00:57:57;;;;;;;10.15;4.53;;;;;;;-142.37;100.00;59669.53;5112575;28;20044;-71
2022/10/11 01:00:23;;;;;;;9.52;5.30;;;;;;;-142.37;100.00;59669.53;5112773;28;20024;-72
2022/10/11 01:02:49;;;;;;;13.88;5.72;;;;;;;-142.37;100.00;59669.53;5112611;28;20042;-71
2022/10/11 01:05:17;;;;;;;10.80;4.80;;;;;;;-142.37;100.00;59669.53;5112521;28;20032;-71
2022/10/11 01:07:45;;;;;;;8.70;5.18;;;;;;;-142.37;100.00;59669.53;5094502;28;20031;-72
2022/10/11 01:10:12;;;;;;;9.00;4.47;;;;;;;-142.37;100.00;59669.53;5094356;28;20028;-73
2022/10/11 01:12:52;;;;;;;11.38;5.57;;;;;;;-142.37;100.00;59669.53;5094322;28;20028;-71
2022/10/11 01:15:22;;;;;;;11.13;5.47;;;;;;;-142.37;100.00;59669.53;5112284;28;20437;-72
2022/10/11 01:18:09;;;;;;;8.38;5.28;;;;;;;-142.37;100.00;59669.53;5112403;28;20076;-71
2022/10/11 01:20:56;;;;;;;9.05;4.47;;;;;;;-142.37;100.00;59669.53;5112490;28;20028;-73
2022/10/11 01:23:39;;;;;;;7.07;5.00;;;;;;;-142.37;100.00;59669.53;5094148;28;20081;-70
2022/10/11 01:26:36;;;;;;;9.25;5.28;;;;;;;-142.37;100.00;59669.53;5093740;28;20055;-72
2022/10/11 01:29:37;;;;;;;12.32;6.10;;;;;;;-142.37;100.00;59669.53;5094086;28;20078;-71
2022/10/11 01:32:17;;;;;;;10.60;5.40;;;;;;;-142.37;100.00;59669.53;5112196;28;20498;-70
2022/10/11 01:34:47;;;;;;;8.85;5.25;;;;;;;-142.37;100.00;59669.53;5112597;28;20028;-71
2022/10/11 01:37:22;;;;;;;10.48;6.00;;;;;;;-142.37;100.00;59669.53;5112371;28;20066;-71
2022/10/11 01:39:56;;;;;;;15.50;7.30;;;;;;;-142.37;100.00;59669.53;5098132;28;20500;-72
2022/10/11 01:42:23;;;;;;;10.02;5.53;;;;;;;-142.37;100.00;59669.53;5098010;28;20027;-71
2022/10/11 01:44:50;;;;;;;13.48;6.00;;;;;;;-142.37;100.00;59669.53;5116120;28;20038;-72
2022/10/11 01:47:20;;;;;;;11.23;5.68;;;;;;;-142.37;100.00;59669.53;5116303;28;20036;-72
2022/10/11 01:49:52;;;;;;;11.13;5.10;;;;;;;-142.37;100.00;59669.53;5097720;28;20039;-71
2022/10/11 01:52:18;;;;;;;6.97;5.57;;;;;;;-142.37;100.00;59669.53;5116216;28;20550;-72
2022/10/11 01:55:05;;;;;;;7.13;5.20;;;;;;;-142.37;100.00;59669.53;5116208;28;20055;-70
2022/10/11 01:57:53;;;;;;;10.07;5.00;;;;;;;-142.37;100.00;59669.53;5115799;28;20044;-72
2022/10/11 02:00:20;;;;;;;9.40;5.60;;;;;;;-142.37;100.00;59669.53;5116038;28;20991;-72
2022/10/11 02:03:16;;;;;;;8.07;5.40;;;;;;;-142.37;100.00;59669.53;5097576;28;20034;-71
2022/10/11 02:05:56;;;;;;;8.50;5.70;;;;;;;-142.37;100.00;59669.53;5097365;28;20071;-71
2022/10/11 02:08:54;;;;;;;11.10;6.03;;;;;;;-142.37;100.00;59669.53;5115615;28;20038;-70
2022/10/11 02:11:29;;;;;;;9.70;5.57;;;;;;;-142.37;100.00;59669.53;5104347;28;20480;-71
2022/10/11 02:14:08;;;;;;;9.20;5.40;;;;;;;-142.37;100.00;59669.53;5097214;28;20037;-72
2022/10/11 02:17:06;;;;;;;9.93;4.57;;;;;;;-142.37;100.00;59669.53;5115737;28;20379;-72
2022/10/11 02:19:40;;;;;;;10.40;4.72;;;;;;;-142.37;100.00;59669.53;5108119;28;20043;-72
2022/10/11 02:22:12;;;;;;;9.95;4.45;;;;;;;-142.37;100.00;59669.53;5097190;28;20057;-72
2022/10/11 02:24:41;;;;;;;7.90;4.70;;;;;;;-142.37;100.00;59669.53;5115371;28;20035;-71
2022/10/11 02:27:09;;;;;;;8.63;5.35;;;;;;;-142.37;100.00;59669.53;5115135;28;20027;-71
2022/10/11 02:29:38;;;;;;;10.18;4.70;;;;;;;-142.37;100.00;59669.53;5097109;28;20028;-71
2022/10/11 02:32:07;;;;;;;9.30;4.90;;;;;;;-142.37;100.00;59669.53;5096994;28;20070;-72
2022/10/11 02:34:43;;;;;;;6.03;4.70;;;;;;;-142.37;100.00;59669.53;5115625;28;20515;-72
2022/10/11 02:37:38;;;;;;;6.60;4.30;;;;;;;-142.37;100.00;59669.53;5096826;28;20118;-72
2022/10/11 02:40:13;;;;;;;10.00;4.53;;;;;;;-142.37;100.00;59669.53;5115527;28;20039;-71
2022/10/11 02:42:44;;;;;;;7.32;4.22;;;;;;;-142.37;100.00;59669.53;5115089;28;20027;-73
2022/10/11 02:45:17;;;;;;;7.60;4.53;;;;;;;-142.37;100.00;59669.53;5096457;28;20020;-72
2022/10/11 02:47:43;;;;;;;9.02;4.18;;;;;;;-142.37;100.00;59669.53;5115100;28;20024;-73
2022/10/11 02:50:13;;;;;;;15.15;4.75;;;;;;;-142.37;100.00;59669.53;5114249;28;20024;-71
2022/10/11 02:52:39;;;;;;;13.02;5.28;;;;;;;-142.37;100.00;59669.53;5096680;28;20031;-71
2022/10/11 02:55:06;;;;;;;9.50;5.03;;;;;;;-142.37;100.00;59669.53;5096424;28;20533;-72
2022/10/11 02:57:31;;;;;;;9.93;5.72;;;;;;;-142.37;100.00;59669.53;5114830;28;20116;-73
2022/10/11 02:59:57;;;;;;;7.38;3.95;;;;;;;-142.37;100.00;59669.53;5115129;28;20031;-71
2022/10/11 03:02:22;;;;;;;7.38;5.22;;;;;;;-142.37;100.00;59669.53;5096857;28;20032;-72
2022/10/11 03:04:48;;;;;;;6.47;4.60;;;;;;;-142.37;100.00;59669.53;5114667;28;20476;-72
2022/10/11 03:07:13;;;;;;;8.82;4.57;;;;;;;-142.37;100.00;59669.53;5096155;28;20036;-72
2022/10/11 03:09:40;;;;;;;7.35;4.95;;;;;;;-142.37;100.00;59669.53;5096384;28;20464;-73
2022/10/11 03:12:06;;;;;;;10.70;4.30;;;;;;;-142.37;100.00;59669.53;5096196;28;20492;-74
2022/10/11 03:14:32;;;;;;;9.27;5.40;;;;;;;-142.37;100.00;59669.53;5114398;28;20036;-74
2022/10/11 03:16:59;;;;;;;6.68;4.90;;;;;;;-142.37;100.00;59669.53;5114195;28;20023;-72
2022/10/11 03:19:25;;;;;;;10.98;3.92;;;;;;;-142.37;100.00;59669.53;5114646;28;20541;-73
2022/10/11 03:22:48;;;;;;;8.80;4.35;;;;;;;-142.37;100.00;59669.53;5114345;28;20020;-73
2022/10/11 03:26:12;;;;;;;5.22;3.58;;;;;;;-142.37;100.00;59669.53;5096126;28;20399;-73
2022/10/11 03:29:35;;;;;;;8.00;3.75;;;;;;;-142.37;100.00;59669.53;5095808;28;20032;-70
2022/10/11 03:32:31;;;;;;;6.22;4.15;;;;;;;-142.37;100.00;59669.53;5095818;28;20034;-68
2022/10/11 03:35:55;;;;;;;;;;;;;;;-142.37;100.00;59669.53;5114208;28;20031;-70
2022/10/11 03:39:09;;;;;;;7.68;3.75;;;;;;;-142.37;100.00;59669.53;5114139;28;19912;-68
2022/10/11 03:42:33;;;;;;;6.22;3.58;;;;;;;-142.37;100.00;59669.53;5113951;28;20080;-64
2022/10/11 03:45:57;;;;;;;4.85;3.85;;;;;;;-142.37;100.00;59669.53;5113311;28;20407;-64
2022/10/11 03:49:12;;;;;;;7.28;3.25;;;;;;;-142.37;100.00;59669.53;5113544;28;20035;-65
2022/10/11 03:51:38;;;;;;;9.25;5.03;;;;;;;-142.37;100.00;59669.53;5113197;28;20028;-57
2022/10/11 03:54:03;;;;;;;11.88;5.05;;;;;;;-142.37;100.00;59669.53;5094997;28;20077;-57
2022/10/11 03:56:29;;;;;;;12.20;5.00;;;;;;;-142.37;100.00;59669.53;5094864;28;20059;-57
2022/10/11 03:59:53;;;;;;;7.90;4.18;;;;;;;-142.37;100.00;59669.53;5094952;28;20487;-57
2022/10/11 04:03:17;;;;;;;10.88;4.80;;;;;;;-142.37;100.00;59669.53;5094591;28;20400;-58
2022/10/11 04:06:41;;;;;;;7.95;4.25;;;;;;;-142.37;100.00;59669.53;5112809;28;20024;-57
2022/10/11 04:10:06;;;;;;;8.15;3.95;;;;;;;-142.37;100.00;59669.53;5094612;28;20500;-57
2022/10/11 04:13:30;;;;;;;6.85;3.13;;;;;;;-142.37;100.00;59669.53;5113090;28;20058;-57
2022/10/11 04:16:55;;;;;;;5.95;3.17;;;;;;;-142.37;100.00;59669.53;5094773;28;20028;-56
2022/10/11 04:20:19;;;;;;;8.43;2.90;;;;;;;-142.37;100.00;59669.53;5112485;28;20437;-57
2022/10/11 04:23:43;;;;;;;6.93;2.97;;;;;;;-142.37;100.00;59669.53;5112933;28;20024;-57
2022/10/11 04:27:07;;;;;;;5.57;3.30;;;;;;;-142.37;100.00;59669.53;5094730;28;20488;-58
2022/10/11 04:30:31;;;;;;;6.43;3.05;;;;;;;-142.37;100.00;59669.53;5112482;28;20019;-58
2022/10/11 04:33:58;;;;;;;7.63;3.05;;;;;;;-142.37;100.00;59669.53;5093954;28;20050;-58
2022/10/11 04:37:22;;;;;;;7.97;3.17;;;;;;;-142.37;100.00;59669.53;5112567;28;20055;-57
2022/10/11 04:40:47;;;;;;;3.97;2.40;;;;;;;-142.37;100.00;59669.53;5093649;28;20034;-57
2022/10/11 04:44:11;;;;;;;6.13;2.42;;;;;;;-142.37;100.00;59669.53;5112282;28;20024;-58
2022/10/11 04:47:35;;;;;;;9.07;2.70;;;;;;;-142.37;100.00;59669.53;5093893;28;20100;-59
2022/10/11 04:50:59;;;;;;;9.88;2.80;;;;;;;-142.37;100.00;59669.53;5111768;28;20036;-59
2022/10/11 04:54:24;;;;;;;4.75;1.65;;;;;;;-142.37;100.00;59669.53;5112331;28;20027;-58
2022/10/11 04:57:48;;;;;;;7.15;2.47;;;;;;;-142.37;100.00;59669.53;5093536;28;20411;-59
2022/10/11 05:01:13;;;;;;;6.35;1.80;;;;;;;-142.37;100.00;59669.53;5093710;28;20480;-58
2022/10/11 05:04:37;;;;;;;5.78;2.58;;;;;;;-142.37;100.00;59669.53;5112165;28;20405;-61
2022/10/11 05:08:02;;;;;;;5.07;2.25;;;;;;;-142.37;100.00;59669.53;5111649;28;20387;-60
2022/10/11 05:11:26;;;;;;;8.68;1.40;;;;;;;-142.37;100.00;59669.53;5093366;28;20468;-63
2022/10/11 05:14:50;;;;;;;5.82;1.83;;;;;;;-142.37;100.00;59669.53;5117334;28;20031;-60
2022/10/11 05:18:16;;;;;;;6.20;1.83;;;;;;;-142.37;100.00;59669.53;5118177;27;20478;-63
2022/10/11 05:21:40;;;;;;;8.85;1.85;;;;;;;-142.37;100.00;59669.53;5099347;28;20027;-63
2022/10/11 05:25:04;;;;;;;7.75;1.08;;;;;;;-142.37;100.00;59669.53;5099918;28;20076;-62
2022/10/11 05:28:29;;;;;;;4.97;1.50;;;;;;;-142.37;100.00;59669.53;5118391;27;20522;-64
2022/10/11 05:31:53;;;;;;;5.85;1.35;;;;;;;-142.37;100.00;59669.53;5118283;28;20027;-63
2022/10/11 05:35:17;;;;;;;4.40;1.60;;;;;;;-142.37;100.00;59669.53;5100179;28;20032;-64
2022/10/11 05:38:41;;;;;;;5.32;1.15;;;;;;;-142.37;100.00;59669.53;5099652;28;20488;-67
2022/10/11 05:42:06;;;;;;;9.95;2.67;;;;;;;-142.37;100.00;59669.53;5099094;28;20031;-65
2022/10/11 05:45:31;;;;;;;5.32;1.70;;;;;;;-142.37;100.00;59669.53;5098735;28;20035;-62
2022/10/11 05:48:02;;;;;;;7.32;1.58;;;;;;;-142.37;100.00;59669.53;5117538;28;20031;-62
2022/10/11 05:50:27;;;;;;;9.25;1.70;;;;;;;-142.37;100.00;59669.53;5098419;28;20377;-64
2022/10/11 05:52:53;;;;;;;4.88;0.90;;;;;;;-142.37;100.00;59669.53;5098940;28;20096;-64
2022/10/11 05:56:23;;;;;;;8.30;2.00;;;;;;;-142.37;100.00;59669.53;5098724;28;20023;-63
2022/10/11 05:59:47;;;;;;;6.90;1.65;;;;;;;-142.37;100.00;59669.53;5098699;28;20482;-64
2022/10/11 06:02:13;;;;;;;6.00;1.50;;;;;;;-142.37;100.00;59669.53;5099309;28;20114;-64
2022/10/11 06:04:39;;;;;;;7.40;1.20;;;;;;;-142.37;100.00;59669.53;5098270;28;20145;-65
2022/10/11 06:07:06;;;;;;;6.18;1.10;;;;;;;-142.37;100.00;59669.53;5116737;28;20488;-67
2022/10/11 06:09:35;;;;;;;5.38;1.40;;;;;;;-142.37;100.00;59669.53;5098981;28;20035;-67
2022/10/11 06:12:01;;;;;;;5.88;2.15;;;;;;;-142.37;100.00;59669.53;5099352;28;20480;-69
2022/10/11 06:15:25;;;;;;;9.02;1.92;;;;;;;-142.37;100.00;59669.53;5116770;27;20037;-70
2022/10/11 06:17:51;;;;;;;4.88;1.33;;;;;;;-142.37;100.00;59669.53;5099605;28;20116;-71
2022/10/11 06:20:17;;;;;;;9.90;2.60;;;;;;;-142.37;100.00;59669.53;5099318;28;20322;-70
2022/10/11 06:22:43;;;;;;;11.10;1.63;;;;;;;-142.37;100.00;59669.53;5098987;28;20027;-71
2022/10/11 06:25:09;;;;;;;10.18;2.03;;;;;;;-142.37;100.00;59669.53;5112709;28;20049;-70
2022/10/11 06:27:35;;;;;;;7.97;1.38;;;;;;;-142.37;100.00;59669.53;5095833;28;20122;-72
2022/10/11 06:30:00;;;;;;;9.07;1.70;;;;;;;-142.37;100.00;59669.53;5114790;28;20015;-73
2022/10/11 06:32:26;;;;;;;7.75;1.27;;;;;;;-142.37;100.00;59669.53;5114319;28;20024;-74
2022/10/11 06:34:52;;;;;;;4.05;0.90;;;;;;;-142.37;100.00;59669.53;5095381;28;20394;-74
2022/10/11 06:37:18;;;;;;;10.27;1.42;;;;;;;-142.37;100.00;59669.53;5113876;28;20028;-73
2022/10/11 06:39:44;;;;;;;9.95;1.73;;;;;;;-142.37;100.00;59669.53;5096482;28;20139;-74
2022/10/11 06:42:10;;;;;;;8.70;1.65;;;;;;;-142.37;100.00;59669.53;5095915;28;20523;-73
2022/10/11 06:44:37;;;;;;;8.98;1.40;;;;;;;-142.37;100.00;59669.53;5114179;28;20020;-72
2022/10/11 06:47:04;;;;;;;7.43;1.35;;;;;;;-142.37;100.00;59669.53;5113871;28;20114;-73
2022/10/11 06:49:29;;;;;;;8.57;1.48;;;;;;;-142.37;100.00;59669.53;5114403;28;20453;-74
2022/10/11 06:51:55;;;;;;;12.15;3.97;;;;;;;-142.37;100.00;59669.53;5114098;28;20129;-72
2022/10/11 06:54:20;;;;;;;11.57;3.22;;;;;;;-142.37;100.00;59669.53;5095267;28;20064;-74
2022/10/11 06:56:46;;;;;;;6.25;0.80;;;;;;;-142.37;100.00;59669.53;5112896;28;20503;-73
2022/10/11 06:59:13;;;;;;;7.22;1.63;;;;;;;-142.37;100.00;59669.53;5113706;28;20047;-74
2022/10/11 07:01:40;;;;;;;7.75;1.17;;;;;;;-142.37;100.00;59669.53;5113816;28;20049;-73
2022/10/11 07:04:07;;;;;;;8.50;1.73;;;;;;;-142.37;100.00;59669.53;5113497;28;20031;-74
2022/10/11 07:06:36;;;;;;;11.13;2.17;;;;;;;-142.37;100.00;59669.53;5114006;28;20492;-74
2022/10/11 07:09:01;;;;;;;6.75;1.75;;;;;;;-142.37;100.00;59669.53;5113363;28;20503;-74
2022/10/11 07:11:27;;;;;;;8.48;1.25;;;;;;;-142.37;100.00;59669.53;5095539;28;20111;-74
2022/10/11 07:13:56;;;;;;;5.75;1.33;;;;;;;-142.37;100.00;59669.53;5113353;28;20536;-74
2022/10/11 07:16:23;;;;;;;5.85;1.63;;;;;;;-142.37;100.00;59669.53;5114025;28;20035;-74
2022/10/11 07:18:52;;;;;;;8.73;1.02;;;;;;;-142.37;100.00;59669.53;5114177;28;20036;-74
2022/10/11 07:21:18;;;;;;;7.25;1.30;;;;;;;-142.37;100.00;59669.53;5113098;28;20459;-74
2022/10/11 07:23:43;;;;;;;12.35;1.17;;;;;;;-142.37;100.00;59669.53;5094947;28;20282;-74
2022/10/11 07:26:10;;;;;;;5.70;1.38;;;;;;;-142.37;100.00;59669.53;5095169;28;20027;-73
2022/10/11 07:28:37;;;;;;;4.22;0.98;;;;;;;-142.37;100.00;59669.53;5113636;28;20137;-73
2022/10/11 07:31:09;;;;;;;3.85;1.23;;;;;;;-142.37;100.00;59669.53;5113780;28;20107;-73
2022/10/11 07:33:34;;;;;;;7.57;1.30;;;;;;;-142.37;100.00;59669.53;5113948;28;20028;-75
2022/10/11 07:36:00;;;;;;;11.10;1.35;;;;;;;-142.37;100.00;59669.53;5095207;28;20485;-72
2022/10/11 07:38:27;;;;;;;7.68;1.08;;;;;;;-142.37;100.00;59669.53;5114335;28;20023;-74
2022/10/11 07:40:52;;;;;;;11.35;1.23;;;;;;;-142.37;100.00;59669.53;5095215;28;20549;-73
2022/10/11 07:43:18;;;;;;;6.50;1.17;;;;;;;-142.37;100.00;59669.53;5113962;28;20027;-73
2022/10/11 07:45:47;;;;;;;6.30;1.95;;;;;;;-142.37;100.00;59669.53;5113712;28;20023;-73
2022/10/11 07:48:14;;;;;;;5.30;1.52;;;;;;;-142.37;100.00;59669.53;5095083;28;20055;-74
2022/10/11 07:50:40;;;;;;;5.30;0.93;;;;;;;-142.37;100.00;59669.53;5094513;28;20027;-74
2022/10/11 07:53:06;;;;;;;5.70;1.42;;;;;;;-142.37;100.00;59669.53;5112456;28;20114;-74
2022/10/11 07:55:41;;;;;;;6.68;1.83;;;;;;;-142.37;100.00;59669.53;5094753;28;20020;-75
2022/10/11 07:58:11;;;;;;;8.23;1.60;;;;;;;-142.37;100.00;59669.53;5095726;28;20036;-74
2022/10/11 08:00:38;;;;;;;5.13;1.23;;;;;;;-142.37;100.00;59669.53;5094923;28;20127;-73
2022/10/11 08:03:05;;;;;;;4.35;1.15;;;;;;;-142.37;100.00;59669.53;5113206;28;20024;-73
2022/10/11 08:05:32;;;;;;;6.57;1.80;;;;;;;-142.37;100.00;59669.53;5094914;28;20031;-73
2022/10/11 08:07:57;;;;;;;5.85;1.45;;;;;;;-142.37;100.00;59669.53;5094277;28;20024;-73
2022/10/11 08:10:25;;;;;;;7.95;1.58;;;;;;;-142.37;100.00;59669.53;5094756;28;20039;-72
2022/10/11 08:12:50;;;;;;;10.32;1.92;;;;;;;-142.37;100.00;59669.53;5113303;28;20060;-72
2022/10/11 08:15:16;;;;;;;9.30;1.20;;;;;;;-142.37;100.00;59669.53;5112732;28;20039;-72
2022/10/11 08:17:42;;;;;;;12.50;2.10;;;;;;;-142.37;100.00;59669.53;5112378;28;20047;-71
2022/10/11 08:20:08;;;;;;;5.38;1.40;;;;;;;-142.37;100.00;59669.53;5094260;28;20031;-70
2022/10/11 08:22:34;;;;;;;7.25;1.25;;;;;;;-142.37;100.00;59669.53;5112025;28;20039;-71
2022/10/11 08:24:59;;;;;;;11.27;1.98;;;;;;;-142.37;100.00;59669.53;5112568;28;20023;-71
2022/10/11 08:27:25;;;;;;;11.60;2.10;;;;;;;-142.37;100.00;59669.53;5094422;28;20471;-70
2022/10/11 08:29:51;;;;;;;8.18;1.70;;;;;;;-142.37;100.00;59669.53;5112711;28;20039;-72
2022/10/11 08:32:16;;;;;;;5.82;1.90;;;;;;;-142.37;100.00;59669.53;5094530;28;20037;-70
2022/10/11 08:34:42;;;;;;;8.23;2.00;;;;;;;-142.37;100.00;59669.53;5112791;28;20035;-72
2022/10/11 08:37:08;;;;;;;7.47;1.92;;;;;;;-142.37;100.00;59669.53;5112300;28;20034;-73
2022/10/11 08:39:33;;;;;;;8.70;1.98;;;;;;;-142.37;100.00;59669.53;5094446;28;20027;-73
2022/10/11 08:42:04;;;;;;;3.17;1.05;;;;;;;-142.37;100.00;59669.53;5111388;28;20020;-70
2022/10/11 08:44:39;;;;;;;3.28;0.80;;;;;;;-142.37;100.00;59669.53;5112443;28;20035;-71
2022/10/11 08:47:26;;;;;;;8.63;1.45;;;;;;;-142.37;100.00;59669.53;5093633;28;20023;-73
2022/10/11 08:49:53;;;;;;;8.88;1.70;;;;;;;-142.37;100.00;59669.53;5093854;28;20035;-73
2022/10/11 08:52:45;;;;;;;5.65;0.88;;;;;;;-142.37;100.00;59669.53;5112002;28;20479;-74
2022/10/11 08:55:38;;;;;;;7.97;2.00;;;;;;;-142.37;100.00;59669.53;5100927;28;20044;-70
2022/10/11 08:58:04;;;;;;;7.63;1.35;;;;;;;-142.37;100.00;59669.53;5093027;28;20068;-70
2022/10/11 09:00:35;;;;;;;8.50;1.85;;;;;;;-142.37;100.00;59669.53;5093630;28;20023;-69
2022/10/11 09:03:06;;;;;;;6.07;1.58;;;;;;;-142.37;100.00;59669.53;5111846;28;20023;-69
2022/10/11 09:05:57;;;;;;;3.17;1.25;;;;;;;-142.37;100.00;59669.53;5111535;28;20024;-71
2022/10/11 09:08:36;;;;;;;5.00;1.25;;;;;;;-142.37;100.00;59669.53;5092814;28;20061;-69
2022/10/11 09:11:32;;;;;;;6.55;1.77;;;;;;;-142.37;100.00;59669.53;5092536;28;20054;-69
2022/10/11 09:14:40;;;;;;;14.48;1.10;;;;;;;-142.37;100.00;59669.53;5093499;28;20470;-69
2022/10/11 09:17:07;;;;;;;6.15;1.30;;;;;;;-142.37;100.00;59669.53;5092803;28;20031;-69
2022/10/11 09:20:18;;;;;;;7.20;1.63;;;;;;;-142.37;100.00;59669.53;5093727;28;20035;-68
2022/10/11 09:22:47;;;;;;;6.18;2.20;;;;;;;-142.37;100.00;59669.53;5093593;28;20028;-69
2022/10/11 09:25:43;;;;;;;6.13;1.27;;;;;;;-142.37;100.00;59669.53;5111551;28;20110;-70
2022/10/11 09:29:13;;;;;;;6.53;1.23;;;;;;;-142.37;100.00;59669.53;5093098;28;20073;-68
2022/10/11 09:32:39;;;;;;;3.97;1.00;;;;;;;-142.37;100.00;59669.53;5110762;28;20031;-69
2022/10/11 09:36:22;;;;;;;8.77;1.90;;;;;;;-142.37;100.00;59669.53;5092449;28;20436;-69
2022/10/11 09:40:00;;;;;;;6.20;1.40;;;;;;;-142.37;100.00;59669.53;5111272;28;20069;-68
2022/10/11 09:43:24;;;;;;;4.55;1.13;;;;;;;-142.37;100.00;59669.53;5111176;28;20227;-69
2022/10/11 09:46:49;;;;;;;6.32;2.13;;;;;;;-142.37;100.00;59669.53;5092137;28;20027;-66
2022/10/11 09:50:20;;;;;;;5.30;1.13;;;;;;;-142.37;100.00;59669.53;5110108;28;20024;-67
2022/10/11 09:53:53;;;;;;;2.42;0.63;;;;;;;-142.37;100.00;59669.53;5110646;28;20292;-67
2022/10/11 09:56:21;;;;;;;4.45;1.02;;;;;;;-142.37;100.00;59669.53;5082289;28;20052;-68
2022/10/11 09:58:47;;;;;;;3.45;0.88;;;;;;;-142.37;100.00;59669.53;5071698;28;20104;-67
2022/10/11 10:01:23;;;;;;;4.05;1.02;;;;;;;-142.37;100.00;59669.53;5072304;28;20029;-67
2022/10/11 10:04:06;;;;;;;7.15;1.08;;;;;;;-142.37;100.00;59669.53;5072770;28;20060;-67
2022/10/11 10:06:33;;;;;;;3.78;1.17;;;;;;;-142.37;100.00;59669.53;5072818;28;20032;-66
2022/10/11 10:09:27;;;;;;;2.53;0.98;;;;;;;-142.37;100.00;59669.53;5073845;28;20028;-68
2022/10/11 10:11:57;;;;;;;5.65;0.90;;;;;;;-142.37;100.00;59669.53;5072936;28;20043;-67
2022/10/11 10:14:29;;;;;;;6.25;0.90;;;;;;;-142.37;100.00;59669.53;5074028;28;20402;-67
2022/10/11 10:17:02;;;;;;;9.27;1.92;;;;;;;-142.37;100.00;59669.53;5072663;28;20029;-66
2022/10/11 10:19:31;;;;;;;4.80;1.13;;;;;;;-142.37;100.00;59669.53;5072652;28;20105;-66
2022/10/11 10:21:57;;;;;;;2.42;1.08;;;;;;;-142.37;100.00;59669.53;5073411;28;20500;-67
2022/10/11 10:25:21;;;;;;;4.45;0.88;;;;;;;-142.37;100.00;59669.53;5072461;28;20021;-66
2022/10/11 10:29:15;;;;;;;4.15;0.82;;;;;;;-142.37;100.00;59669.53;5072089;28;20032;-67
2022/10/11 10:32:58;;;;;;;5.20;1.27;;;;;;;-142.37;100.00;59669.53;5072370;28;20086;-68
2022/10/11 10:36:26;;;;;;;5.00;0.90;;;;;;;-142.37;100.00;59669.53;5072019;28;20043;-68
2022/10/11 10:40:08;;;;;;;3.03;0.90;;;;;;;-142.37;100.00;59669.53;5071904;28;20108;-65
2022/10/11 10:42:33;;;;;;;1.08;0.65;;;;;;;-142.37;100.00;59669.53;5071612;28;20028;-67
2022/10/11 10:45:00;;;;;;;2.10;0.45;;;;;;;-142.37;100.00;59669.53;5073118;28;20089;-66
2022/10/11 10:47:43;;;;;;;3.30;0.95;;;;;;;-142.37;100.00;59669.53;5073334;28;20039;-68
2022/10/11 10:50:29;;;;;;;3.30;0.88;;;;;;;-142.37;100.00;59669.53;5073374;28;20421;-67
2022/10/11 10:53:16;;;;;;;3.95;1.13;;;;;;;-142.37;100.00;59669.53;5073887;28;20539;-69
2022/10/11 10:55:46;;;;;;;2.72;0.57;;;;;;;-142.37;100.00;59669.53;5074823;28;20071;-68
2022/10/11 10:58:26;;;;;;;5.60;0.60;;;;;;;-142.37;100.00;59669.53;5095702;28;20034;-68
2022/10/11 11:00:58;;;;;;;4.05;1.02;;;;;;;-142.37;100.00;59669.53;5095382;28;20056;-69
2022/10/11 11:03:42;;;;;;;2.60;0.63;;;;;;;-142.37;100.00;59669.53;5095081;28;20027;-69
2022/10/11 11:06:30;;;;;;;0.88;0.47;;;;;;;-142.37;100.00;59669.53;5095443;28;20035;-68
2022/10/11 11:09:14;;;;;;;2.30;0.63;;;;;;;-142.37;100.00;59669.53;5095704;28;20131;-70
2022/10/11 11:12:27;;;;;;;1.08;0.65;;;;;;;-142.37;100.00;59669.53;5094522;28;20023;-69
2022/10/11 11:15:04;;;;;;;0.90;0.40;;;;;;;-142.37;100.00;59669.53;5077777;28;20047;-69
2022/10/11 11:17:47;;;;;;;5.07;0.80;;;;;;;-142.37;100.00;59669.53;5113728;28;20107;-69
2022/10/11 11:20:32;;;;;;;1.20;0.50;;;;;;;-142.37;100.00;59669.53;5113688;28;20039;-68
2022/10/11 11:23:16;;;;;;;1.50;0.55;;;;;;;-142.37;100.00;59669.53;5113625;28;20129;-69
2022/10/11 11:25:51;;;;;;;2.90;0.43;;;;;;;-142.37;100.00;59669.53;5113980;28;20039;-69
2022/10/11 11:28:45;;;;;;;3.15;0.80;;;;;;;-142.37;100.00;59669.53;5113285;28;20290;-70
2022/10/11 11:31:29;;;;;;;1.58;0.55;;;;;;;-142.37;100.00;59669.53;5094726;28;20460;-70
2022/10/11 11:34:40;;;;;;;1.83;0.60;;;;;;;-142.37;100.00;59669.53;5094780;28;20024;-69
2022/10/11 11:37:21;;;;;;;6.93;0.80;;;;;;;-142.37;100.00;59669.53;5010699;28;20367;-72
2022/10/11 11:39:49;;;;;;;1.85;0.50;;;;;;;-142.37;100.00;59669.53;5092263;28;20046;-69
2022/10/11 11:42:22;;;;;;;1.10;0.57;;;;;;;-142.37;100.00;59669.53;5094364;28;20080;-70
2022/10/11 11:44:50;;;;;;;5.93;1.00;;;;;;;-142.37;100.00;59669.53;5112906;28;20114;-71
2022/10/11 11:47:30;;;;;;;3.05;0.40;;;;;;;-142.37;100.00;59669.53;5112721;28;20027;-70
2022/10/11 11:50:23;;;;;;;3.15;0.82;;;;;;;-142.37;100.00;59669.53;5113429;28;20114;-69
2022/10/11 11:53:03;;;;;;;2.75;0.50;;;;;;;-142.37;100.00;59669.53;5094652;28;20074;-70
2022/10/11 11:56:00;;;;;;;2.72;0.40;;;;;;;-142.37;100.00;59669.53;5113019;28;20110;-70
2022/10/11 11:58:49;;;;;;;1.33;0.38;;;;;;;-142.37;100.00;59669.53;5093565;28;20044;-70
2022/10/11 12:01:23;;;;;;;2.75;0.65;;;;;;;-142.37;100.00;59669.53;5112147;28;20053;-69
2022/10/11 12:03:53;;;;;;;;;;;;;;;-142.37;100.00;59669.53;5094960;28;20023;-69
2022/10/11 12:06:21;;;;;;;2.90;0.43;;;;;;;-142.37;100.00;59669.53;5094521;28;19938;-70
2022/10/11 12:09:08;;;;;;;2.80;0.43;;;;;;;-142.37;100.00;59669.53;5094405;28;20399;-71
2022/10/11 12:11:37;;;;;;;3.83;0.40;;;;;;;-142.37;100.00;59669.53;5094526;28;20024;-72
2022/10/11 12:14:26;;;;;;;2.25;0.45;;;;;;;-142.37;100.00;59669.53;5095228;28;20063;-70
2022/10/11 12:17:10;;;;;;;2.25;0.52;;;;;;;-142.37;100.00;59669.53;5095292;28;20082;-71
2022/10/11 12:19:38;;;;;;;3.15;1.10;;;;;;;-142.37;100.00;59669.53;5094654;28;20039;-70
2022/10/11 12:22:53;;;;;;;1.50;0.70;;;;;;;-142.37;100.00;59669.53;5111460;28;20023;-72
2022/10/11 12:26:26;;;;;;;3.75;0.45;;;;;;;-142.37;100.00;59669.53;5094061;28;20087;-71